createdAt,value
2018-04-24T00:02:21.528Z,101326.56
2018-04-24T00:04:50.210Z,101331.14
2018-04-24T00:07:18.428Z,101325.55
2018-04-24T00:09:46.693Z,101325.40
2018-04-24T00:12:15.487Z,101335.58
2018-04-24T00:14:43.721Z,101335.87
2018-04-24T00:17:11.918Z,101345.13
2018-04-24T00:19:40.549Z,101341.73
2018-04-24T00:22:08.778Z,101337.62
2018-04-24T00:24:36.985Z,101340.12
2018-04-24T00:27:05.687Z,101335.03
2018-04-24T00:29:33.920Z,101329.52
2018-04-24T00:32:02.121Z,101328.87
2018-04-24T00:34:30.963Z,101320.25
2018-04-24T00:36:59.183Z,101313.06
2018-04-24T00:39:27.373Z,101308.57
2018-04-24T00:41:56.168Z,101307.03
2018-04-24T00:44:24.405Z,101303.88
2018-04-24T00:46:52.599Z,101305.05
2018-04-24T00:49:21.160Z,101298.08
2018-04-24T00:51:49.400Z,101296.59
2018-04-24T00:54:17.618Z,101306.52
2018-04-24T00:56:46.333Z,101300.02
2018-04-24T00:59:14.667Z,101299.80
2018-04-24T01:01:42.858Z,101293.66
2018-04-24T01:04:11.539Z,101304.88
2018-04-24T01:06:39.817Z,101308.05
2018-04-24T01:09:08.788Z,101315.30
2018-04-24T01:11:37.242Z,101322.39
2018-04-24T01:14:05.928Z,101318.54
2018-04-24T01:16:34.167Z,101313.95
2018-04-24T01:19:02.397Z,101314.31
2018-04-24T01:21:31.270Z,101319.52
2018-04-24T01:23:59.461Z,101321.90
2018-04-24T01:26:28.193Z,101321.39
2018-04-24T01:28:56.790Z,101322.87
2018-04-24T01:31:25.008Z,101326.65
2018-04-24T01:33:53.444Z,101333.95
2018-04-24T01:36:21.912Z,101327.30
2018-04-24T01:38:50.141Z,101323.61
2018-04-24T01:41:18.563Z,101309.42
2018-04-24T01:43:47.253Z,101305.80
2018-04-24T01:46:15.472Z,101305.00
2018-04-24T01:48:43.745Z,101310.55
2018-04-24T01:51:12.407Z,101308.48
2018-04-24T01:53:40.609Z,101313.19
2018-04-24T01:56:09.024Z,101313.95
2018-04-24T01:58:37.620Z,101318.23
2018-04-24T02:01:05.819Z,101310.31
2018-04-24T02:03:34.084Z,101312.52
2018-04-24T02:06:02.803Z,101307.98
2018-04-24T02:08:31.004Z,101304.55
2018-04-24T02:10:59.343Z,101307.31
2018-04-24T02:13:28.069Z,101303.84
2018-04-24T02:15:56.274Z,101303.02
2018-04-24T02:18:24.450Z,101304.72
2018-04-24T02:20:53.051Z,101311.97
2018-04-24T02:23:21.256Z,101312.04
2018-04-24T02:25:49.565Z,101306.74
2018-04-24T02:28:18.266Z,101307.38
2018-04-24T02:30:46.527Z,101291.80
2018-04-24T02:33:14.749Z,101288.45
2018-04-24T02:35:43.294Z,101294.03
2018-04-24T02:38:11.497Z,101288.77
2018-04-24T02:40:39.980Z,101294.03
2018-04-24T02:43:08.497Z,101286.70
2018-04-24T02:45:36.699Z,101291.20
2018-04-24T02:48:05.065Z,101274.55
2018-04-24T02:50:33.844Z,101266.31
2018-04-24T02:53:01.984Z,101268.32
2018-04-24T02:55:30.161Z,101268.64
2018-04-24T02:57:58.926Z,101274.73
2018-04-24T03:00:27.150Z,101279.76
2018-04-24T03:02:55.374Z,101285.88
2018-04-24T03:05:38.243Z,101300.45
2018-04-24T03:08:11.785Z,101299.68
2018-04-24T03:10:40.539Z,101297.21
2018-04-24T03:13:09.219Z,101296.46
2018-04-24T03:15:37.456Z,101288.87
2018-04-24T03:18:05.768Z,101288.91
2018-04-24T03:20:34.493Z,101281.00
2018-04-24T03:23:02.742Z,101281.12
2018-04-24T03:25:31.053Z,101284.02
2018-04-24T03:27:59.639Z,101278.73
2018-04-24T03:30:27.879Z,101274.53
2018-04-24T03:32:56.130Z,101269.36
2018-04-24T03:35:24.667Z,101276.78
2018-04-24T03:37:52.850Z,101271.26
2018-04-24T03:40:21.280Z,101270.44
2018-04-24T03:42:49.902Z,101276.89
2018-04-24T03:45:18.088Z,101271.12
2018-04-24T03:47:46.534Z,101268.30
2018-04-24T03:50:15.079Z,101259.88
2018-04-24T03:52:43.289Z,101254.84
2018-04-24T03:55:11.674Z,101260.95
2018-04-24T03:57:40.153Z,101258.62
2018-04-24T04:00:08.379Z,101256.53
2018-04-24T04:02:36.781Z,101250.37
2018-04-24T04:05:05.463Z,101249.83
2018-04-24T04:07:33.682Z,101250.94
2018-04-24T04:10:02.073Z,101249.94
2018-04-24T04:12:30.689Z,101240.77
2018-04-24T04:14:58.895Z,101231.58
2018-04-24T04:17:40.111Z,101240.63
2018-04-24T04:20:20.771Z,101244.11
2018-04-24T04:23:00.970Z,101239.45
2018-04-24T04:25:29.184Z,101240.59
2018-04-24T04:27:57.393Z,101246.36
2018-04-24T04:30:25.899Z,101247.11
2018-04-24T04:32:54.188Z,101256.36
2018-04-24T04:35:22.479Z,101264.09
2018-04-24T04:37:51.041Z,101263.71
2018-04-24T04:40:19.247Z,101271.18
2018-04-24T04:42:47.538Z,101272.95
2018-04-24T04:45:16.263Z,101273.46
2018-04-24T04:48:02.620Z,101280.22
2018-04-24T04:50:36.232Z,101287.91
2018-04-24T04:53:04.459Z,101284.64
2018-04-24T04:55:33.195Z,101297.91
2018-04-24T04:58:01.928Z,101300.61
2018-04-24T05:00:30.232Z,101299.14
2018-04-24T05:02:58.581Z,101309.73
2018-04-24T05:05:27.450Z,101309.45
2018-04-24T05:07:55.654Z,101309.23
2018-04-24T05:10:23.843Z,101311.31
2018-04-24T05:12:52.478Z,101300.91
2018-04-24T05:15:20.714Z,101305.76
2018-04-24T05:17:48.921Z,101309.19
2018-04-24T05:20:17.557Z,101304.61
2018-04-24T05:22:45.807Z,101304.36
2018-04-24T05:25:14.009Z,101306.05
2018-04-24T05:27:43.417Z,101304.23
2018-04-24T05:30:12.310Z,101316.11
2018-04-24T05:32:40.521Z,101310.59
2018-04-24T05:35:08.722Z,101305.22
2018-04-24T05:37:37.440Z,101317.24
2018-04-24T05:40:05.659Z,101319.94
2018-04-24T05:42:33.897Z,101325.16
2018-04-24T05:45:02.498Z,101328.11
2018-04-24T05:47:30.714Z,101322.69
2018-04-24T05:49:59.026Z,101326.46
2018-04-24T05:52:27.738Z,101334.59
2018-04-24T05:54:55.899Z,101339.25
2018-04-24T05:57:25.702Z,101337.15
2018-04-24T05:59:54.646Z,101327.64
2018-04-24T06:02:25.891Z,101333.13
2018-04-24T06:04:57.547Z,101330.41
2018-04-24T06:07:27.550Z,101332.05
2018-04-24T06:10:02.519Z,101334.02
2018-04-24T06:12:36.371Z,101330.11
2018-04-24T06:15:04.989Z,101324.48
2018-04-24T06:17:33.257Z,101326.49
2018-04-24T06:20:01.786Z,101329.74
2018-04-24T06:22:33.003Z,101321.36
2018-04-24T06:25:02.920Z,101323.65
2018-04-24T06:27:33.622Z,101318.97
2018-04-24T06:30:03.391Z,101329.80
2018-04-24T06:32:31.837Z,101329.64
2018-04-24T06:35:00.061Z,101332.84
2018-04-24T06:37:28.850Z,101328.71
2018-04-24T06:39:57.469Z,101325.89
2018-04-24T06:42:25.689Z,101326.55
2018-04-24T06:44:53.953Z,101317.67
2018-04-24T06:47:22.533Z,101317.83
2018-04-24T06:49:51.953Z,101316.89
2018-04-24T06:52:20.132Z,101320.83
2018-04-24T06:54:48.345Z,101313.49
2018-04-24T06:57:16.560Z,101316.89
2018-04-24T06:59:44.890Z,101316.69
2018-04-24T07:02:13.594Z,101325.05
2018-04-24T07:04:41.805Z,101322.33
2018-04-24T07:07:09.996Z,101326.39
2018-04-24T07:09:38.589Z,101321.14
2018-04-24T07:12:06.789Z,101314.38
2018-04-24T07:14:34.992Z,101312.83
2018-04-24T07:17:03.672Z,101322.34
2018-04-24T07:19:31.884Z,101318.20
2018-04-24T07:22:00.187Z,101326.95
2018-04-24T07:24:28.680Z,101326.09
2018-04-24T07:26:56.880Z,101327.92
2018-04-24T07:29:25.101Z,101334.55
2018-04-24T07:31:53.815Z,101333.28
2018-04-24T07:34:22.025Z,101338.81
2018-04-24T07:36:50.247Z,101338.37
2018-04-24T07:39:18.937Z,101340.12
2018-04-24T07:41:47.133Z,101346.61
2018-04-24T07:44:15.343Z,101344.38
2018-04-24T07:46:44.080Z,101351.30
2018-04-24T07:49:12.296Z,101350.94
2018-04-24T07:51:40.513Z,101352.76
2018-04-24T07:54:09.133Z,101355.88
2018-04-24T07:56:37.914Z,101347.31
2018-04-24T07:59:06.260Z,101342.10
2018-04-24T08:01:34.967Z,101336.94
2018-04-24T08:04:03.166Z,101339.14
2018-04-24T08:06:31.468Z,101340.77
2018-04-24T08:08:59.974Z,101346.31
2018-04-24T08:11:28.206Z,101348.22
2018-04-24T08:13:56.606Z,101337.47
2018-04-24T08:16:25.114Z,101338.86
2018-04-24T08:18:53.344Z,101354.27
2018-04-24T08:21:21.637Z,101348.72
2018-04-24T08:23:50.140Z,101348.58
2018-04-24T08:26:18.463Z,101355.28
2018-04-24T08:28:46.724Z,101354.69
2018-04-24T08:31:15.316Z,101350.16
2018-04-24T08:33:43.563Z,101363.55
2018-04-24T08:36:11.934Z,101369.93
2018-04-24T08:38:40.401Z,101368.30
2018-04-24T08:41:08.604Z,101369.64
2018-04-24T08:43:36.899Z,101377.06
2018-04-24T08:46:05.591Z,101368.38
2018-04-24T08:48:33.829Z,101372.56
2018-04-24T08:51:02.085Z,101376.56
2018-04-24T08:53:30.631Z,101372.34
2018-04-24T08:55:58.890Z,101372.33
2018-04-24T08:58:27.167Z,101372.77
2018-04-24T09:00:55.792Z,101371.22
2018-04-24T09:03:23.997Z,101370.94
2018-04-24T09:05:52.348Z,101373.94
2018-04-24T09:08:20.787Z,101387.99
2018-04-24T09:10:49.026Z,101394.06
2018-04-24T09:13:17.339Z,101398.17
2018-04-24T09:15:46.412Z,101387.50
2018-04-24T09:18:14.640Z,101387.40
2018-04-24T09:20:42.898Z,101393.77
2018-04-24T09:23:11.538Z,101388.16
2018-04-24T09:25:39.763Z,101386.28
2018-04-24T09:28:07.976Z,101386.91
2018-04-24T09:30:36.589Z,101377.95
2018-04-24T09:33:04.842Z,101371.77
2018-04-24T09:35:33.074Z,101375.97
2018-04-24T09:38:01.679Z,101377.08
2018-04-24T09:40:29.896Z,101376.64
2018-04-24T09:42:58.099Z,101373.53
2018-04-24T09:45:26.411Z,101371.56
2018-04-24T09:47:54.606Z,101372.11
2018-04-24T09:50:23.012Z,101373.34
2018-04-24T09:52:51.624Z,101379.63
2018-04-24T09:55:19.824Z,101393.61
2018-04-24T09:57:48.046Z,101397.06
2018-04-24T10:00:22.387Z,101388.02
2018-04-24T10:02:51.125Z,101386.11
2018-04-24T10:05:19.337Z,101384.20
2018-04-24T10:07:47.580Z,101377.66
2018-04-24T10:10:16.301Z,101379.39
2018-04-24T10:12:44.500Z,101383.14
2018-04-24T10:15:12.702Z,101384.39
2018-04-24T10:17:41.332Z,101376.89
2018-04-24T10:20:09.542Z,101378.39
2018-04-24T10:22:37.776Z,101372.09
2018-04-24T10:25:06.482Z,101360.78
2018-04-24T10:27:34.679Z,101354.13
2018-04-24T10:30:02.890Z,101338.34
2018-04-24T10:32:31.505Z,101349.16
2018-04-24T10:34:59.684Z,101346.66
2018-04-24T10:37:27.901Z,101343.55
2018-04-24T10:39:56.625Z,101340.05
2018-04-24T10:42:24.826Z,101333.83
2018-04-24T10:44:53.026Z,101333.26
2018-04-24T10:47:21.744Z,101335.27
2018-04-24T10:49:49.941Z,101332.36
2018-04-24T10:52:18.153Z,101336.55
2018-04-24T10:54:46.814Z,101334.02
2018-04-24T10:57:15.015Z,101339.02
2018-04-24T10:59:43.230Z,101338.11
2018-04-24T11:02:11.909Z,101326.28
2018-04-24T11:04:40.114Z,101328.67
2018-04-24T11:07:08.390Z,101322.69
2018-04-24T11:09:37.167Z,101329.08
2018-04-24T11:12:05.405Z,101331.30
2018-04-24T11:14:33.644Z,101333.62
2018-04-24T11:17:02.228Z,101322.06
2018-04-24T11:19:30.440Z,101322.20
2018-04-24T11:21:58.676Z,101321.22
2018-04-24T11:24:27.269Z,101315.37
2018-04-24T11:26:55.475Z,101310.66
2018-04-24T11:29:23.653Z,101316.98
2018-04-24T11:31:52.360Z,101310.95
2018-04-24T11:34:20.633Z,101320.44
2018-04-24T11:36:48.792Z,101322.06
2018-04-24T11:39:17.496Z,101317.45
2018-04-24T11:41:45.679Z,101330.12
2018-04-24T11:44:13.963Z,101332.67
2018-04-24T11:46:42.620Z,101326.95
2018-04-24T11:49:10.855Z,101324.52
2018-04-24T11:51:39.077Z,101330.12
2018-04-24T11:54:07.771Z,101330.41
2018-04-24T11:56:35.992Z,101334.41
2018-04-24T11:59:04.191Z,101329.96
2018-04-24T12:01:32.812Z,101335.10
2018-04-24T12:04:01.009Z,101328.69
2018-04-24T12:06:29.227Z,101321.03
2018-04-24T12:08:57.922Z,101316.49
2018-04-24T12:11:26.126Z,101311.06
2018-04-24T12:13:54.318Z,101318.67
2018-04-24T12:16:23.072Z,101310.09
2018-04-24T12:18:51.284Z,101313.56
2018-04-24T12:21:19.490Z,101308.84
2018-04-24T12:23:48.189Z,101309.87
2018-04-24T12:26:16.460Z,101314.78
2018-04-24T12:28:44.650Z,101310.70
2018-04-24T12:31:13.326Z,101308.41
2018-04-24T12:33:41.544Z,101311.91
2018-04-24T12:36:09.757Z,101318.28
2018-04-24T12:38:38.404Z,101304.86
2018-04-24T12:41:06.617Z,101307.36
2018-04-24T12:43:34.813Z,101303.15
2018-04-24T12:46:03.521Z,101297.64
2018-04-24T12:48:31.737Z,101298.01
2018-04-24T12:50:59.949Z,101291.72
2018-04-24T12:53:28.579Z,101292.23
2018-04-24T12:55:56.800Z,101293.52
2018-04-24T12:58:25.035Z,101296.76
2018-04-24T13:00:53.595Z,101296.33
2018-04-24T13:03:21.815Z,101293.12
2018-04-24T13:05:50.221Z,101291.95
2018-04-24T13:08:18.947Z,101277.59
2018-04-24T13:10:47.149Z,101267.95
2018-04-24T13:13:15.364Z,101269.52
2018-04-24T13:15:44.038Z,101262.42
2018-04-24T13:18:12.279Z,101259.75
2018-04-24T13:20:40.513Z,101252.84
2018-04-24T13:23:09.122Z,101243.77
2018-04-24T13:25:37.411Z,101253.25
2018-04-24T13:28:05.595Z,101251.18
2018-04-24T13:30:34.195Z,101250.16
2018-04-24T13:33:02.414Z,101252.53
2018-04-24T13:35:30.629Z,101246.95
2018-04-24T13:37:59.374Z,101241.80
2018-04-24T13:40:27.574Z,101238.48
2018-04-24T13:42:55.796Z,101232.34
2018-04-24T13:45:24.481Z,101233.56
2018-04-24T13:47:52.695Z,101233.39
2018-04-24T13:50:20.902Z,101231.13
2018-04-24T13:52:49.550Z,101230.50
2018-04-24T13:55:17.850Z,101227.44
2018-04-24T13:57:45.964Z,101222.89
2018-04-24T14:00:15.242Z,101214.19
2018-04-24T14:02:43.447Z,101213.58
2018-04-24T14:05:11.754Z,101209.25
2018-04-24T14:07:40.404Z,101204.39
2018-04-24T14:10:08.652Z,101199.56
2018-04-24T14:12:37.001Z,101200.33
2018-04-24T14:15:05.419Z,101196.70
2018-04-24T14:17:33.644Z,101200.41
2018-04-24T14:20:02.044Z,101193.37
2018-04-24T14:22:30.542Z,101184.20
2018-04-24T14:24:58.733Z,101182.74
2018-04-24T14:27:27.061Z,101183.56
2018-04-24T14:29:55.605Z,101184.53
2018-04-24T14:32:23.836Z,101173.94
2018-04-24T14:34:52.131Z,101167.56
2018-04-24T14:37:20.820Z,101171.02
2018-04-24T14:39:49.061Z,101170.24
2018-04-24T14:42:22.222Z,101160.52
2018-04-24T14:44:50.899Z,101152.93
2018-04-24T14:47:19.109Z,101164.73
2018-04-24T14:49:47.350Z,101151.05
2018-04-24T14:52:15.884Z,101150.69
2018-04-24T14:54:44.129Z,101147.77
2018-04-24T14:57:12.558Z,101138.25
2018-04-24T14:59:41.070Z,101135.27
2018-04-24T15:02:09.306Z,101134.75
2018-04-24T15:04:37.547Z,101129.00
2018-04-24T15:07:06.089Z,101133.66
2018-04-24T15:09:34.305Z,101121.73
2018-04-24T15:12:02.480Z,101121.48
2018-04-24T15:14:31.116Z,101115.59
2018-04-24T15:16:59.361Z,101109.41
2018-04-24T15:19:27.574Z,101101.91
2018-04-24T15:21:56.154Z,101092.92
2018-04-24T15:24:24.357Z,101089.57
2018-04-24T15:26:52.600Z,101083.34
2018-04-24T15:29:20.844Z,101073.66
2018-04-24T15:31:50.598Z,101080.78
2018-04-24T15:34:19.469Z,101066.23
2018-04-24T15:36:48.279Z,101064.84
2018-04-24T15:39:17.287Z,101062.28
2018-04-24T15:41:45.506Z,101060.59
2018-04-24T15:44:14.265Z,101061.06
2018-04-24T15:46:43.240Z,101058.94
2018-04-24T15:49:12.237Z,101052.00
2018-04-24T15:51:40.466Z,101053.44
2018-04-24T15:54:09.437Z,101049.26
2018-04-24T15:56:38.250Z,101048.64
2018-04-24T15:59:07.243Z,101047.70
2018-04-24T16:01:35.449Z,101050.48
2018-04-24T16:04:05.213Z,101057.52
2018-04-24T16:06:33.643Z,101054.71
2018-04-24T16:09:02.423Z,101057.97
2018-04-24T16:11:30.747Z,101051.80
2018-04-24T16:13:59.445Z,101045.12
2018-04-24T16:16:28.301Z,101052.52
2018-04-24T16:18:57.345Z,101045.39
2018-04-24T16:21:25.563Z,101040.00
2018-04-24T16:23:54.326Z,101042.73
2018-04-24T16:26:23.264Z,101043.55
2018-04-24T16:28:52.288Z,101042.73
2018-04-24T16:31:20.525Z,101039.82
2018-04-24T16:33:49.325Z,101037.00
2018-04-24T16:36:18.110Z,101032.66
2018-04-24T16:38:47.140Z,101034.67
2018-04-24T16:41:15.355Z,101028.20
2018-04-24T16:43:44.184Z,101020.40
2018-04-24T16:46:12.933Z,101009.83
2018-04-24T16:48:41.175Z,101016.17
2018-04-24T16:51:09.406Z,101009.02
2018-04-24T16:53:38.184Z,101004.13
2018-04-24T16:56:07.130Z,100998.63
2018-04-24T16:58:35.360Z,100996.66
2018-04-24T17:01:04.256Z,100996.50
2018-04-24T17:03:33.028Z,100997.23
2018-04-24T17:06:02.169Z,100998.25
2018-04-24T17:08:30.318Z,100996.84
2018-04-24T17:10:59.165Z,100985.36
2018-04-24T17:13:28.025Z,100985.19
2018-04-24T17:15:57.024Z,100986.19
2018-04-24T17:18:25.234Z,100982.80
2018-04-24T17:20:54.035Z,100986.70
2018-04-24T17:23:22.932Z,100986.38
2018-04-24T17:25:51.888Z,100976.59
2018-04-24T17:28:20.092Z,100970.45
2018-04-24T17:30:49.016Z,100968.53
2018-04-24T17:33:17.474Z,100965.43
2018-04-24T17:35:45.680Z,100961.28
2018-04-24T17:38:13.864Z,100964.47
2018-04-24T17:40:42.438Z,100962.30
2018-04-24T17:43:10.649Z,100959.82
2018-04-24T17:45:39.002Z,100952.02
2018-04-24T17:48:07.529Z,100953.40
2018-04-24T17:50:35.727Z,100948.77
2018-04-24T17:53:04.125Z,100947.16
2018-04-24T17:55:32.722Z,100946.55
2018-04-24T17:58:00.993Z,100942.70
2018-04-24T18:00:29.206Z,100939.81
2018-04-24T18:02:57.892Z,100940.58
2018-04-24T18:05:26.175Z,100941.69
2018-04-24T18:07:54.378Z,100944.25
2018-04-24T18:10:22.858Z,100950.77
2018-04-24T18:12:51.870Z,100944.94
2018-04-24T18:15:20.084Z,100939.14
2018-04-24T18:17:48.667Z,100943.20
2018-04-24T18:20:17.522Z,100938.78
2018-04-24T18:22:45.725Z,100940.22
2018-04-24T18:25:14.114Z,100941.23
2018-04-24T18:27:42.881Z,100940.15
2018-04-24T18:30:11.063Z,100940.69
2018-04-24T18:32:39.314Z,100937.70
2018-04-24T18:35:08.859Z,100948.72
2018-04-24T18:37:37.127Z,100947.67
2018-04-24T18:40:05.365Z,100950.59
2018-04-24T18:42:33.837Z,100946.92
2018-04-24T18:45:02.057Z,100935.47
2018-04-24T18:47:30.494Z,100940.00
2018-04-24T18:49:58.949Z,100939.79
2018-04-24T18:52:27.137Z,100943.78
2018-04-24T18:54:55.891Z,100937.66
2018-04-24T18:57:24.373Z,100934.63
2018-04-24T18:59:52.592Z,100932.65
2018-04-24T19:02:20.946Z,100928.08
2018-04-24T19:04:49.538Z,100927.53
2018-04-24T19:07:17.741Z,100928.97
2018-04-24T19:09:46.020Z,100924.66
2018-04-24T19:12:14.566Z,100927.59
2018-04-24T19:14:42.791Z,100923.09
2018-04-24T19:17:11.091Z,100925.50
2018-04-24T19:19:39.615Z,100919.16
2018-04-24T19:22:07.834Z,100916.05
2018-04-24T19:24:41.911Z,100907.85
2018-04-24T19:27:10.394Z,100911.31
2018-04-24T19:29:39.016Z,100914.98
2018-04-24T19:32:12.829Z,100917.17
2018-04-24T19:34:41.128Z,100919.29
2018-04-24T19:37:09.601Z,100917.28
2018-04-24T19:39:44.110Z,100915.41
2018-04-24T19:42:12.361Z,100908.09
2018-04-24T19:44:41.086Z,100906.94
2018-04-24T19:47:09.663Z,100906.05
2018-04-24T19:49:44.231Z,100908.63
2018-04-24T19:52:12.433Z,100904.86
2018-04-24T19:54:46.960Z,100908.09
2018-04-24T19:57:15.409Z,100903.64
2018-04-24T19:59:44.033Z,100902.25
2018-04-24T20:02:12.259Z,100906.23
2018-04-24T20:04:40.484Z,100898.61
2018-04-24T20:07:09.092Z,100895.20
2018-04-24T20:09:37.311Z,100893.44
2018-04-24T20:12:06.077Z,100896.03
2018-04-24T20:14:34.557Z,100889.27
2018-04-24T20:17:02.790Z,100886.78
2018-04-24T20:19:31.034Z,100888.66
2018-04-24T20:21:59.527Z,100882.69
2018-04-24T20:24:27.799Z,100879.41
2018-04-24T20:26:56.044Z,100865.70
2018-04-24T20:29:24.591Z,100857.67
2018-04-24T20:31:52.841Z,100855.88
2018-04-24T20:34:21.056Z,100850.05
2018-04-24T20:36:49.605Z,100855.27
2018-04-24T20:39:17.834Z,100843.56
2018-04-24T20:41:46.111Z,100850.95
2018-04-24T20:44:14.807Z,100845.16
2018-04-24T20:46:43.028Z,100839.39
2018-04-24T20:49:11.297Z,100834.97
2018-04-24T20:51:39.809Z,100833.81
2018-04-24T20:54:08.012Z,100822.98
2018-04-24T20:56:36.335Z,100822.69
2018-04-24T20:59:04.934Z,100814.41
2018-04-24T21:01:33.163Z,100812.22
2018-04-24T21:04:01.385Z,100804.98
2018-04-24T21:06:29.988Z,100797.10
2018-04-24T21:08:58.224Z,100794.33
2018-04-24T21:11:26.474Z,100793.86
2018-04-24T21:13:55.130Z,100786.98
2018-04-24T21:16:23.364Z,100784.07
2018-04-24T21:18:51.601Z,100773.81
2018-04-24T21:21:20.194Z,100767.98
2018-04-24T21:23:48.387Z,100775.15
2018-04-24T21:26:16.685Z,100771.12
2018-04-24T21:28:45.337Z,100770.76
2018-04-24T21:31:13.537Z,100768.56
2018-04-24T21:33:41.942Z,100768.39
2018-04-24T21:36:10.425Z,100758.99
2018-04-24T21:38:38.622Z,100756.15
2018-04-24T21:41:06.875Z,100753.48
2018-04-24T21:43:35.420Z,100738.73
2018-04-24T21:46:03.660Z,100742.59
2018-04-24T21:48:32.132Z,100743.13
2018-04-24T21:51:00.603Z,100736.47
2018-04-24T21:53:28.821Z,100732.48
2018-04-24T21:55:57.223Z,100728.95
2018-04-24T21:58:25.720Z,100731.61
2018-04-24T22:00:53.946Z,100727.84
2018-04-24T22:03:22.279Z,100719.20
2018-04-24T22:05:50.814Z,100718.20
2018-04-24T22:08:19.026Z,100714.31
2018-04-24T22:10:47.396Z,100704.53
2018-04-24T22:13:15.920Z,100709.31
2018-04-24T22:15:44.134Z,100700.42
2018-04-24T22:18:13.081Z,100699.38
2018-04-24T22:20:41.723Z,100693.81
2018-04-24T22:23:10.452Z,100691.72
2018-04-24T22:25:38.661Z,100689.78
2018-04-24T22:28:06.879Z,100680.64
2018-04-24T22:30:35.570Z,100686.78
2018-04-24T22:33:03.826Z,100683.91
2018-04-24T22:35:32.022Z,100679.95
2018-04-24T22:38:00.631Z,100674.61
2018-04-24T22:40:28.849Z,100668.42
2018-04-24T22:42:57.137Z,100661.70
2018-04-24T22:45:25.744Z,100661.04
2018-04-24T22:47:53.946Z,100659.94
2018-04-24T22:50:22.144Z,100655.55
2018-04-24T22:52:50.770Z,100648.78
2018-04-24T22:55:18.987Z,100644.78
2018-04-24T22:57:47.256Z,100646.00
2018-04-24T23:00:16.423Z,100640.09
2018-04-24T23:02:44.629Z,100639.31
2018-04-24T23:05:13.040Z,100635.67
2018-04-24T23:07:41.541Z,100633.44
2018-04-24T23:10:09.205Z,100634.23
2018-04-24T23:12:49.193Z,100631.84
2018-04-24T23:15:29.287Z,100628.68
2018-04-24T23:18:09.415Z,100618.69
2018-04-24T23:20:37.063Z,100618.53
2018-04-24T23:23:05.312Z,100609.64
2018-04-24T23:25:33.541Z,100611.14
2018-04-24T23:28:02.303Z,100606.36
2018-04-24T23:30:30.623Z,100587.17
2018-04-24T23:32:58.795Z,100576.08
2018-04-24T23:35:27.394Z,100582.92
2018-04-24T23:37:55.634Z,100575.44
2018-04-24T23:40:23.869Z,100576.23
2018-04-24T23:42:52.520Z,100572.05
2018-04-24T23:45:20.768Z,100572.96
2018-04-24T23:47:48.980Z,100561.73
2018-04-24T23:50:17.596Z,100561.66
2018-04-24T23:52:45.866Z,100556.67
2018-04-24T23:55:14.073Z,100559.37
2018-04-24T23:57:42.825Z,100554.70
